Terminal Aerodrome Forecast
Issued by NWS

Home | Current Version | Previous Version | Text Only | Print | Product List | Glossary On
Versions: 1 2 3 4 5 6 7 8 9 10 11 12 13 14 15 16 17 18 19 20 21 22 23 24
000
FTUS41 KPBZ 011100
TAFDUJ
TAF
KDUJ 011139Z 0112/0212 36007KT P6SM VCSH BKN008 OVC015
      TEMPO 0114/0118 SCT005 BKN015
     FM011800 35011G22KT P6SM VCSH OVC015
     FM012300 34013G25KT 4SM -SHSN OVC015
     FM020100 34010KT P6SM OVC015=

USA.gov is the U.S. government's official web portal to all federal, state and local government web resources and services.